createdAt,value
2022-12-23T00:01:26.767Z,100372.75
2022-12-23T00:03:57.719Z,100382.53
2022-12-23T00:06:25.305Z,100375.31
2022-12-23T00:08:57.978Z,100378.75
2022-12-23T00:11:26.091Z,100364.53
2022-12-23T00:14:14.837Z,100378.88
2022-12-23T00:16:44.974Z,100382.53
2022-12-23T00:19:11.517Z,100388.78
2022-12-23T00:21:37.973Z,100394.16
2022-12-23T00:24:04.992Z,100400.53
2022-12-23T00:26:31.416Z,100412.25
2022-12-23T00:28:59.285Z,100400.66
2022-12-23T00:31:26.291Z,100415.81
2022-12-23T00:33:54.181Z,100409.69
2022-12-23T00:36:24.943Z,100416.91
2022-12-23T00:39:10.224Z,100421.56
2022-12-23T00:41:55.268Z,100420.72
2022-12-23T00:44:22.292Z,100419.09
2022-12-23T00:46:48.958Z,100420.06
2022-12-23T00:49:36.117Z,100416.63
2022-12-23T00:52:05.199Z,100413.19
2022-12-23T00:54:31.922Z,100416.88
2022-12-23T00:56:59.123Z,100422.38
2022-12-23T00:59:25.828Z,100420.56
2022-12-23T01:02:11.511Z,100428.75
2022-12-23T01:04:56.675Z,100433.25
2022-12-23T01:07:24.117Z,100435.09
2022-12-23T01:09:50.575Z,100434.22
2022-12-23T01:12:17.361Z,100437.78
2022-12-23T01:14:44.563Z,100436.19
2022-12-23T01:17:11.368Z,100431.75
2022-12-23T01:19:38.073Z,100440.81
2022-12-23T01:22:05.019Z,100439.97
2022-12-23T01:24:32.983Z,100443.63
2022-12-23T01:27:00.014Z,100449.03
2022-12-23T01:29:27.396Z,100452.59
2022-12-23T01:31:54.161Z,100449.03
2022-12-23T01:34:20.603Z,100459.78
2022-12-23T01:36:47.117Z,100458.91
2022-12-23T01:39:13.642Z,100467.88
2022-12-23T01:41:58.316Z,100468.81
2022-12-23T01:45:02.128Z,100466.25
2022-12-23T01:47:46.777Z,100470.69
2022-12-23T01:50:16.424Z,100477.88
2022-12-23T01:52:51.658Z,100481.44
2022-12-23T01:55:22.083Z,100474.31
2022-12-23T01:57:49.232Z,100478.88
2022-12-23T02:00:46.133Z,100481.56
2022-12-23T02:03:30.988Z,100502.22
2022-12-23T02:06:18.333Z,100496.97
2022-12-23T02:09:03.253Z,100506.00
2022-12-23T02:12:03.985Z,100507.97
2022-12-23T02:14:55.412Z,100503.66
2022-12-23T02:17:46.675Z,100507.19
2022-12-23T02:20:37.550Z,100508.06
2022-12-23T02:23:32.207Z,100516.97
2022-12-23T02:26:32.041Z,100518.91
2022-12-23T02:29:35.969Z,100527.13
2022-12-23T02:32:29.984Z,100528.22
2022-12-23T02:35:13.418Z,100539.09
2022-12-23T02:37:53.161Z,100535.66
2022-12-23T02:40:42.968Z,100542.97
2022-12-23T02:43:27.945Z,100544.78
2022-12-23T02:46:00.585Z,100544.19
2022-12-23T02:48:37.078Z,100554.19
2022-12-23T02:51:05.752Z,100547.19
2022-12-23T02:53:40.318Z,100553.53
2022-12-23T02:56:09.353Z,100564.41
2022-12-23T02:58:40.155Z,100564.84
2022-12-23T03:01:08.140Z,100562.81
2022-12-23T03:03:36.738Z,100565.63
2022-12-23T03:06:16.463Z,100572.94
2022-12-23T03:08:44.775Z,100582.81
2022-12-23T03:11:15.618Z,100575.84
2022-12-23T03:13:56.269Z,100582.28
2022-12-23T03:16:28.719Z,100571.88
2022-12-23T03:19:25.990Z,100571.31
2022-12-23T03:22:02.641Z,100580.69
2022-12-23T03:24:41.160Z,100571.28
2022-12-23T03:27:23.729Z,100560.63
2022-12-23T03:30:04.539Z,100566.00
2022-12-23T03:32:33.533Z,100564.19
2022-12-23T03:35:02.473Z,100569.47
2022-12-23T03:37:32.626Z,100569.16
2022-12-23T03:40:07.399Z,100564.66
2022-12-23T03:42:37.403Z,100571.00
2022-12-23T03:45:37.432Z,100566.78
2022-12-23T03:48:03.952Z,100581.19
2022-12-23T03:50:31.930Z,100579.34
2022-12-23T03:53:06.148Z,100582.03
2022-12-23T03:55:41.228Z,100577.44
2022-12-23T03:58:15.989Z,100566.59
2022-12-23T04:00:50.468Z,100571.00
2022-12-23T04:03:25.123Z,100579.91
2022-12-23T04:05:57.455Z,100592.41
2022-12-23T04:08:31.402Z,100593.34
2022-12-23T04:10:58.270Z,100604.13
2022-12-23T04:13:27.225Z,100601.44
2022-12-23T04:15:54.417Z,100601.34
2022-12-23T04:18:21.367Z,100610.25
2022-12-23T04:20:47.880Z,100620.91
2022-12-23T04:23:14.308Z,100618.22
2022-12-23T04:25:40.833Z,100619.94
2022-12-23T04:28:07.290Z,100631.53
2022-12-23T04:30:34.839Z,100634.22
2022-12-23T04:33:02.219Z,100632.53
2022-12-23T04:35:29.088Z,100629.72
2022-12-23T04:37:55.580Z,100628.66
2022-12-23T04:40:22.039Z,100626.09
2022-12-23T04:42:48.451Z,100620.38
2022-12-23T04:45:15.101Z,100617.69
2022-12-23T04:47:41.905Z,100625.75
2022-12-23T04:50:13.489Z,100620.50
2022-12-23T04:52:39.976Z,100613.91
2022-12-23T04:55:07.328Z,100607.88
2022-12-23T04:57:33.879Z,100609.75
2022-12-23T05:00:00.353Z,100607.88
2022-12-23T05:02:26.910Z,100605.09
2022-12-23T05:04:53.374Z,100614.03
2022-12-23T05:07:19.842Z,100609.50
2022-12-23T05:09:46.363Z,100612.09
2022-12-23T05:12:12.796Z,100603.16
2022-12-23T05:14:39.263Z,100612.09
2022-12-23T05:17:07.938Z,100615.53
2022-12-23T05:19:34.697Z,100610.16
2022-12-23T05:22:01.226Z,100616.50
2022-12-23T05:24:27.655Z,100628.13
2022-12-23T05:26:59.840Z,100629.94
2022-12-23T05:29:27.470Z,100637.91
2022-12-23T05:31:54.074Z,100636.06
2022-12-23T05:34:21.767Z,100640.69
2022-12-23T05:36:48.259Z,100643.28
2022-12-23T05:39:14.898Z,100646.94
2022-12-23T05:41:41.375Z,100652.31
2022-12-23T05:44:07.922Z,100660.41
2022-12-23T05:46:34.557Z,100657.81
2022-12-23T05:49:01.194Z,100654.25
2022-12-23T05:51:27.714Z,100657.91
2022-12-23T05:53:54.736Z,100655.13
2022-12-23T05:56:21.210Z,100656.94
2022-12-23T05:58:48.128Z,100663.31
2022-12-23T06:01:14.835Z,100655.22
2022-12-23T06:03:41.448Z,100656.09
2022-12-23T06:06:08.287Z,100657.91
2022-12-23T06:08:34.836Z,100652.66
2022-12-23T06:11:04.436Z,100643.72
2022-12-23T06:13:30.885Z,100647.28
2022-12-23T06:15:57.288Z,100651.66
2022-12-23T06:18:24.420Z,100649.97
2022-12-23T06:20:50.997Z,100639.31
2022-12-23T06:23:17.506Z,100633.94
2022-12-23T06:25:43.984Z,100634.78
2022-12-23T06:28:10.481Z,100629.41
2022-12-23T06:30:37.011Z,100633.94
2022-12-23T06:33:03.547Z,100625.00
2022-12-23T06:35:30.051Z,100625.66
2022-12-23T06:37:56.546Z,100631.13
2022-12-23T06:40:23.061Z,100642.94
2022-12-23T06:42:49.548Z,100635.88
2022-12-23T06:45:16.143Z,100641.34
2022-12-23T06:47:42.625Z,100648.56
2022-12-23T06:50:09.500Z,100652.22
2022-12-23T06:52:35.911Z,100657.50
2022-12-23T06:55:02.436Z,100662.00
2022-12-23T06:57:28.947Z,100665.44
2022-12-23T06:59:55.621Z,100663.75
2022-12-23T07:02:22.205Z,100664.56
2022-12-23T07:04:48.788Z,100668.13
2022-12-23T07:07:15.429Z,100673.41
2022-12-23T07:09:41.972Z,100671.69
2022-12-23T07:12:08.453Z,100676.19
2022-12-23T07:14:35.086Z,100674.38
2022-12-23T07:17:01.659Z,100678.88
2022-12-23T07:19:28.480Z,100689.66
2022-12-23T07:21:54.980Z,100697.81
2022-12-23T07:24:21.512Z,100689.88
2022-12-23T07:26:48.015Z,100696.84
2022-12-23T07:29:15.195Z,100696.72
2022-12-23T07:31:42.074Z,100696.00
2022-12-23T07:34:09.388Z,100690.63
2022-12-23T07:36:35.915Z,100693.31
2022-12-23T07:39:02.599Z,100696.84
2022-12-23T07:41:29.530Z,100691.34
2022-12-23T07:44:02.300Z,100677.06
2022-12-23T07:46:28.876Z,100672.44
2022-12-23T07:48:55.418Z,100661.56
2022-12-23T07:51:21.832Z,100669.56
2022-12-23T07:53:51.845Z,100674.16
2022-12-23T07:56:19.020Z,100667.03
2022-12-23T07:58:52.755Z,100662.53
2022-12-23T08:01:20.030Z,100667.81
2022-12-23T08:03:47.189Z,100671.47
2022-12-23T08:06:15.228Z,100666.09
2022-12-23T08:08:44.152Z,100673.28
2022-12-23T08:11:11.090Z,100665.22
2022-12-23T08:13:39.437Z,100664.25
2022-12-23T08:16:07.279Z,100660.50
2022-12-23T08:18:36.522Z,100660.50
2022-12-23T08:21:06.533Z,100662.22
2022-12-23T08:23:33.807Z,100656.00
2022-12-23T08:26:09.970Z,100655.13
2022-12-23T08:28:37.853Z,100666.84
2022-12-23T08:31:05.292Z,100656.09
2022-12-23T08:33:32.198Z,100660.63
2022-12-23T08:35:58.645Z,100647.16
2022-12-23T08:38:25.282Z,100640.03
2022-12-23T08:40:51.993Z,100630.06
2022-12-23T08:43:19.360Z,100630.81
2022-12-23T08:45:45.850Z,100637.06
2022-12-23T08:48:13.327Z,100643.28
2022-12-23T08:50:43.027Z,100638.66
2022-12-23T08:53:10.981Z,100629.75
2022-12-23T08:55:43.072Z,100629.63
2022-12-23T08:58:10.539Z,100624.16
2022-12-23T09:00:38.766Z,100621.47
2022-12-23T09:03:05.754Z,100615.09
2022-12-23T09:05:32.506Z,100609.84
2022-12-23T09:08:00.129Z,100617.03
2022-12-23T09:10:26.635Z,100607.25
2022-12-23T09:12:53.199Z,100605.31
2022-12-23T09:15:19.800Z,100604.44
2022-12-23T09:17:46.772Z,100593.69
2022-12-23T09:20:13.510Z,100600.78
2022-12-23T09:22:40.231Z,100605.22
2022-12-23T09:25:06.966Z,100600.69
2022-12-23T09:27:33.453Z,100598.00
2022-12-23T09:29:59.898Z,100599.84
2022-12-23T09:32:26.362Z,100597.16
2022-12-23T09:34:52.784Z,100599.72
2022-12-23T09:37:20.250Z,100597.03
2022-12-23T09:39:46.750Z,100602.19
2022-12-23T09:42:36.198Z,100593.16
2022-12-23T09:45:15.940Z,100597.44
2022-12-23T09:47:43.213Z,100594.88
2022-12-23T09:50:17.989Z,100593.06
2022-12-23T09:53:02.589Z,100584.13
2022-12-23T09:55:37.787Z,100573.34
2022-12-23T09:58:17.543Z,100569.69
2022-12-23T10:01:00.361Z,100561.50
2022-12-23T10:03:39.621Z,100550.66
2022-12-23T10:06:24.446Z,100542.38
2022-12-23T10:08:56.831Z,100539.69
2022-12-23T10:11:37.903Z,100527.69
2022-12-23T10:14:14.256Z,100526.00
2022-12-23T10:16:47.141Z,100518.69
2022-12-23T10:19:41.562Z,100519.44
2022-12-23T10:22:43.113Z,100511.38
2022-12-23T10:25:36.619Z,100518.44
2022-12-23T10:28:03.249Z,100500.59
2022-12-23T10:31:05.897Z,100505.75
2022-12-23T10:33:30.397Z,100499.50
2022-12-23T10:36:15.231Z,100498.44
2022-12-23T10:38:59.043Z,100501.84
2022-12-23T10:41:35.624Z,100502.81
2022-12-23T10:44:26.318Z,100498.31
2022-12-23T10:47:27.456Z,100489.59
2022-12-23T10:50:29.494Z,100483.34
2022-12-23T10:53:00.859Z,100481.41
2022-12-23T10:55:34.285Z,100484.13
2022-12-23T10:58:11.783Z,100478.84
2022-12-23T11:00:41.261Z,100480.44
2022-12-23T11:03:17.881Z,100476.78
2022-12-23T11:05:46.520Z,100471.28
2022-12-23T11:08:13.088Z,100463.97
2022-12-23T11:10:40.081Z,100462.00
2022-12-23T11:13:06.644Z,100455.78
2022-12-23T11:15:41.500Z,100454.78
2022-12-23T11:18:13.909Z,100452.97
2022-12-23T11:20:43.098Z,100452.97
2022-12-23T11:23:29.150Z,100453.81
2022-12-23T11:26:07.831Z,100457.25
2022-12-23T11:28:37.584Z,100449.19
2022-12-23T11:31:09.731Z,100449.94
2022-12-23T11:33:39.795Z,100439.16
2022-12-23T11:36:18.990Z,100431.22
2022-12-23T11:39:02.688Z,100422.16
2022-12-23T11:41:36.075Z,100420.22
2022-12-23T11:44:12.281Z,100406.63
2022-12-23T11:46:38.895Z,100393.06
2022-12-23T11:49:16.496Z,100385.84
2022-12-23T11:51:45.432Z,100374.22
2022-12-23T11:54:18.091Z,100378.66
2022-12-23T11:56:48.355Z,100367.88
2022-12-23T11:59:38.344Z,100359.69
2022-12-23T12:02:20.991Z,100355.19
2022-12-23T12:05:00.061Z,100352.47
2022-12-23T12:07:27.520Z,100347.94
2022-12-23T12:09:57.738Z,100339.84
2022-12-23T12:12:24.473Z,100340.72
2022-12-23T12:14:54.248Z,100335.47
2022-12-23T12:17:38.097Z,100327.50
2022-12-23T12:20:14.424Z,100331.91
2022-12-23T12:22:47.937Z,100327.50
2022-12-23T12:25:26.043Z,100328.34
2022-12-23T12:28:02.972Z,100331.03
2022-12-23T12:30:34.664Z,100325.66
2022-12-23T12:33:08.739Z,100307.81
2022-12-23T12:35:44.476Z,100292.66
2022-12-23T12:38:20.486Z,100277.44
2022-12-23T12:40:55.094Z,100267.69
2022-12-23T12:43:27.629Z,100270.38
2022-12-23T12:45:59.959Z,100270.38
2022-12-23T12:48:49.133Z,100254.22
2022-12-23T12:51:24.916Z,100247.09
2022-12-23T12:54:06.283Z,100244.53
2022-12-23T12:56:36.482Z,100231.81
2022-12-23T12:59:04.053Z,100228.38
2022-12-23T13:01:57.232Z,100230.25
2022-12-23T13:04:45.599Z,100220.44
2022-12-23T13:07:47.853Z,100215.81
2022-12-23T13:10:33.108Z,100203.34
2022-12-23T13:13:06.823Z,100204.16
2022-12-23T13:15:40.501Z,100208.34
2022-12-23T13:18:09.972Z,100199.28
2022-12-23T13:20:46.204Z,100192.19
2022-12-23T13:23:45.828Z,100203.84
2022-12-23T13:26:33.472Z,100200.41
2022-12-23T13:29:17.937Z,100205.78
2022-12-23T13:31:53.885Z,100199.53
2022-12-23T13:35:11.482Z,100190.59
2022-12-23T13:38:14.350Z,100182.75
2022-12-23T13:41:02.820Z,100182.75
2022-12-23T13:43:46.047Z,100179.25
2022-12-23T13:46:23.409Z,100193.53
2022-12-23T13:49:06.798Z,100187.31
2022-12-23T13:51:40.641Z,100177.25
2022-12-23T13:54:16.762Z,100166.50
2022-12-23T13:56:46.472Z,100157.59
2022-12-23T13:59:15.946Z,100151.47
2022-12-23T14:01:42.442Z,100146.94
2022-12-23T14:04:35.526Z,100146.22
2022-12-23T14:07:19.028Z,100128.22
2022-12-23T14:09:51.893Z,100118.31
2022-12-23T14:12:31.423Z,100104.84
2022-12-23T14:15:03.785Z,100103.78
2022-12-23T14:17:44.444Z,100095.56
2022-12-23T14:20:34.008Z,100102.41
2022-12-23T14:23:24.271Z,100102.75
2022-12-23T14:25:55.359Z,100113.31
2022-12-23T14:28:40.989Z,100107.66
2022-12-23T14:31:37.465Z,100097.16
2022-12-23T14:34:31.951Z,100091.91
2022-12-23T14:37:20.280Z,100088.59
2022-12-23T14:39:48.568Z,100095.94
2022-12-23T14:42:34.483Z,100106.09
2022-12-23T14:45:33.668Z,100106.22
2022-12-23T14:48:00.272Z,100104.38
2022-12-23T14:51:07.902Z,100109.03
2022-12-23T14:53:36.760Z,100117.94
2022-12-23T14:56:09.251Z,100115.16
2022-12-23T14:58:48.074Z,100120.28
2022-12-23T15:01:33.053Z,100105.09
2022-12-23T15:04:07.979Z,100104.38
2022-12-23T15:06:43.065Z,100101.78
2022-12-23T15:09:24.743Z,100106.47
2022-12-23T15:11:53.297Z,100109.97
2022-12-23T15:14:31.397Z,100088.59
2022-12-23T15:16:58.292Z,100084.06
2022-12-23T15:19:27.070Z,100080.63
2022-12-23T15:22:17.217Z,100085.16
2022-12-23T15:24:48.004Z,100071.81
2022-12-23T15:27:28.765Z,100087.25
2022-12-23T15:29:57.261Z,100082.97
2022-12-23T15:32:25.287Z,100084.91
2022-12-23T15:34:55.253Z,100076.09
2022-12-23T15:37:27.715Z,100081.47
2022-12-23T15:40:03.445Z,100070.63
2022-12-23T15:42:38.300Z,100075.28
2022-12-23T15:45:23.214Z,100086.03
2022-12-23T15:47:50.722Z,100081.59
2022-12-23T15:50:18.976Z,100052.88
2022-12-23T15:52:47.981Z,100074.41
2022-12-23T15:55:25.379Z,100081.59
2022-12-23T15:57:52.354Z,100088.84
2022-12-23T16:00:28.681Z,100095.94
2022-12-23T16:03:00.928Z,100092.25
2022-12-23T16:05:33.533Z,100092.16
2022-12-23T16:08:16.100Z,100098.50
2022-12-23T16:11:04.623Z,100107.31
2022-12-23T16:13:32.915Z,100109.88
2022-12-23T16:16:33.116Z,100099.09
2022-12-23T16:19:00.267Z,100107.19
2022-12-23T16:21:33.631Z,100111.69
2022-12-23T16:24:01.651Z,100102.66
2022-12-23T16:26:28.160Z,100093.72
2022-12-23T16:28:59.356Z,100085.66
2022-12-23T16:31:26.359Z,100076.72
2022-12-23T16:34:00.979Z,100079.41
2022-12-23T16:36:27.446Z,100080.41
2022-12-23T16:39:08.997Z,100082.22
2022-12-23T16:41:35.950Z,100088.47
2022-12-23T16:44:03.857Z,100096.53
2022-12-23T16:46:36.011Z,100100.22
2022-12-23T16:49:05.257Z,100102.91
2022-12-23T16:51:34.151Z,100098.25
2022-12-23T16:54:01.657Z,100097.41
2022-12-23T16:56:31.860Z,100105.34
2022-12-23T16:58:58.328Z,100104.50
2022-12-23T17:01:29.456Z,100108.03
2022-12-23T17:03:56.140Z,100101.94
2022-12-23T17:06:23.359Z,100113.56
2022-12-23T17:08:50.686Z,100118.94
2022-12-23T17:11:21.508Z,100117.06
2022-12-23T17:13:48.100Z,100117.06
2022-12-23T17:16:19.821Z,100112.69
2022-12-23T17:18:51.202Z,100122.59
2022-12-23T17:21:31.428Z,100100.22
2022-12-23T17:24:25.469Z,100108.16
2022-12-23T17:26:53.302Z,100134.94
2022-12-23T17:29:44.752Z,100127.84
2022-12-23T17:32:17.680Z,100127.00
2022-12-23T17:34:44.579Z,100117.19
2022-12-23T17:37:19.817Z,100110.88
2022-12-23T17:39:47.442Z,100117.81
2022-12-23T17:42:25.786Z,100116.00
2022-12-23T17:44:52.892Z,100121.25
2022-12-23T17:47:22.175Z,100117.56
2022-12-23T17:49:49.370Z,100106.81
2022-12-23T17:52:21.361Z,100105.59
2022-12-23T17:54:49.425Z,100116.84
2022-12-23T17:57:24.365Z,100118.53
2022-12-23T17:59:53.263Z,100120.03
2022-12-23T18:02:33.003Z,100108.88
2022-12-23T18:04:59.841Z,100116.81
2022-12-23T18:07:26.524Z,100115.63
2022-12-23T18:09:53.329Z,100126.13
2022-12-23T18:12:34.597Z,100131.25
2022-12-23T18:15:02.301Z,100134.19
2022-12-23T18:17:29.035Z,100122.31
2022-12-23T18:19:55.530Z,100126.59
2022-12-23T18:22:24.282Z,100137.97
2022-12-23T18:24:57.002Z,100128.69
2022-12-23T18:27:25.245Z,100143.22
2022-12-23T18:29:51.889Z,100150.94
2022-12-23T18:32:24.968Z,100149.84
2022-12-23T18:34:53.512Z,100154.97
2022-12-23T18:37:21.294Z,100152.16
2022-12-23T18:39:48.536Z,100145.63
2022-12-23T18:42:17.372Z,100158.28
2022-12-23T18:44:45.394Z,100165.38
2022-12-23T18:47:18.220Z,100163.41
2022-12-23T18:49:44.704Z,100167.09
2022-12-23T18:52:14.632Z,100174.06
2022-12-23T18:54:41.627Z,100188.38
2022-12-23T18:57:10.585Z,100186.31
2022-12-23T18:59:38.949Z,100186.44
2022-12-23T19:02:06.129Z,100184.56
2022-12-23T19:04:32.674Z,100189.13
2022-12-23T19:06:59.274Z,100182.88
2022-12-23T19:09:25.967Z,100183.84
2022-12-23T19:11:53.651Z,100180.19
2022-12-23T19:14:20.340Z,100190.94
2022-12-23T19:16:51.598Z,100183.84
2022-12-23T19:19:18.825Z,100181.25
2022-12-23T19:21:45.375Z,100179.56
2022-12-23T19:24:11.844Z,100186.66
2022-12-23T19:26:38.306Z,100185.81
2022-12-23T19:29:05.260Z,100189.22
2022-12-23T19:31:34.016Z,100195.59
2022-12-23T19:34:00.710Z,100196.72
2022-12-23T19:36:27.806Z,100204.81
2022-12-23T19:38:56.559Z,100212.91
2022-12-23T19:41:23.156Z,100219.97
2022-12-23T19:43:49.651Z,100214.59
2022-12-23T19:46:16.887Z,100219.97
2022-12-23T19:48:43.917Z,100226.38
2022-12-23T19:51:12.936Z,100231.84
2022-12-23T19:53:40.340Z,100224.63
2022-12-23T19:56:11.365Z,100231.97
2022-12-23T19:58:40.000Z,100237.97
2022-12-23T20:01:15.429Z,100248.50
2022-12-23T20:03:43.911Z,100251.81
2022-12-23T20:06:18.339Z,100258.19
2022-12-23T20:08:45.035Z,100265.28
2022-12-23T20:11:14.172Z,100262.72
2022-12-23T20:13:40.783Z,100253.78
2022-12-23T20:16:08.063Z,100260.00
2022-12-23T20:18:34.915Z,100261.88
2022-12-23T20:21:01.868Z,100264.44
2022-12-23T20:23:29.677Z,100267.97
2022-12-23T20:25:56.405Z,100275.94
2022-12-23T20:28:23.515Z,100273.22
2022-12-23T20:31:00.101Z,100274.22
2022-12-23T20:33:26.677Z,100289.41
2022-12-23T20:35:53.221Z,100291.25
2022-12-23T20:38:20.597Z,100294.78
2022-12-23T20:40:47.088Z,100300.91
2022-12-23T20:43:15.457Z,100305.34
2022-12-23T20:45:43.057Z,100300.06
2022-12-23T20:48:10.208Z,100291.00
2022-12-23T20:50:40.510Z,100306.31
2022-12-23T20:53:07.079Z,100308.03
2022-12-23T20:55:33.697Z,100318.56
2022-12-23T20:58:23.219Z,100331.31
2022-12-23T21:00:50.753Z,100338.66
2022-12-23T21:03:17.507Z,100340.38
2022-12-23T21:05:43.988Z,100346.47
2022-12-23T21:08:10.681Z,100348.22
2022-12-23T21:10:37.283Z,100348.47
2022-12-23T21:13:04.303Z,100358.25
2022-12-23T21:15:32.382Z,100359.34
2022-12-23T21:17:59.725Z,100367.53
2022-12-23T21:20:26.204Z,100366.84
2022-12-23T21:22:52.791Z,100366.09
2022-12-23T21:25:19.330Z,100374.28
2022-12-23T21:27:45.761Z,100377.81
2022-12-23T21:30:13.207Z,100386.16
2022-12-23T21:32:39.670Z,100372.69
2022-12-23T21:35:06.750Z,100383.59
2022-12-23T21:37:33.181Z,100397.91
2022-12-23T21:39:59.645Z,100395.22
2022-12-23T21:42:26.071Z,100397.69
2022-12-23T21:44:52.743Z,100413.09
2022-12-23T21:47:19.206Z,100405.13
2022-12-23T21:49:45.647Z,100408.94
2022-12-23T21:52:12.157Z,100417.25
2022-12-23T21:54:38.727Z,100411.84
2022-12-23T21:57:05.391Z,100422.53
2022-12-23T21:59:35.147Z,100421.66
2022-12-23T22:02:02.223Z,100424.47
2022-12-23T22:04:28.828Z,100432.31
2022-12-23T22:06:55.324Z,100426.19
2022-12-23T22:09:21.983Z,100424.25
2022-12-23T22:11:48.884Z,100445.16
2022-12-23T22:14:18.823Z,100456.19
2022-12-23T22:16:45.605Z,100449.06
2022-12-23T22:19:12.596Z,100453.09
2022-12-23T22:21:39.764Z,100463.25
2022-12-23T22:24:07.012Z,100477.91
2022-12-23T22:26:33.930Z,100471.78
2022-12-23T22:29:02.536Z,100479.25
2022-12-23T22:31:35.691Z,100482.16
2022-12-23T22:34:02.897Z,100488.78
2022-12-23T22:36:29.780Z,100494.16
2022-12-23T22:38:58.423Z,100493.41
2022-12-23T22:41:27.793Z,100505.03
2022-12-23T22:43:54.619Z,100509.69
2022-12-23T22:46:21.368Z,100507.00
2022-12-23T22:48:47.970Z,100507.75
2022-12-23T22:51:18.110Z,100516.00
2022-12-23T22:53:45.536Z,100518.09
2022-12-23T22:56:13.943Z,100516.50
2022-12-23T22:58:40.751Z,100520.03
2022-12-23T23:01:25.932Z,100526.50
2022-12-23T23:03:57.398Z,100530.06
2022-12-23T23:06:29.195Z,100523.69
2022-12-23T23:08:56.586Z,100531.78
2022-12-23T23:11:24.561Z,100528.13
2022-12-23T23:13:51.766Z,100533.50
2022-12-23T23:16:18.455Z,100534.56
2022-12-23T23:18:45.247Z,100534.56
2022-12-23T23:21:16.302Z,100532.63
2022-12-23T23:23:42.765Z,100534.56
2022-12-23T23:26:10.271Z,100552.66
2022-12-23T23:28:39.306Z,100541.31
2022-12-23T23:31:39.861Z,100542.03
2022-12-23T23:33:52.823Z,100553.88
2022-12-23T23:36:20.262Z,100541.81
2022-12-23T23:38:46.686Z,100555.16
2022-12-23T23:41:16.181Z,100561.38
2022-12-23T23:43:47.034Z,100560.66
2022-12-23T23:46:13.556Z,100572.16
2022-12-23T23:48:40.119Z,100574.13
2022-12-23T23:51:07.161Z,100574.13
2022-12-23T23:53:34.034Z,100580.97
2022-12-23T23:56:05.711Z,100592.00
2022-12-23T23:58:32.549Z,100595.53
